createdAt,value
2022-11-28T00:01:42.040Z,96.00
2022-11-28T00:04:11.081Z,91.50
2022-11-28T00:06:45.407Z,87.60
2022-11-28T00:09:14.957Z,94.30
2022-11-28T00:11:44.905Z,92.50
2022-11-28T00:14:13.652Z,97.90
2022-11-28T00:16:42.743Z,91.90
2022-11-28T00:19:12.584Z,93.80
2022-11-28T00:21:41.768Z,78.80
2022-11-28T00:24:09.958Z,89.30
2022-11-28T00:26:40.561Z,87.50
2022-11-28T00:29:10.458Z,92.30
2022-11-28T00:31:42.757Z,95.60
2022-11-28T00:34:13.619Z,85.50
2022-11-28T00:36:44.585Z,80.60
2022-11-28T00:39:13.142Z,87.10
2022-11-28T00:41:41.763Z,80.70
2022-11-28T00:44:11.474Z,77.30
2022-11-28T00:46:39.775Z,90.60
2022-11-28T00:49:08.242Z,95.70
2022-11-28T00:51:36.730Z,92.60
2022-11-28T00:54:06.216Z,88.80
2022-11-28T00:56:37.544Z,97.20
2022-11-28T00:59:06.253Z,98.90
2022-11-28T01:01:38.605Z,95.60
2022-11-28T01:04:09.944Z,94.60
2022-11-28T01:06:41.922Z,94.40
2022-11-28T01:09:19.683Z,82.70
2022-11-28T01:11:49.275Z,90.30
2022-11-28T01:14:21.826Z,86.10
2022-11-28T01:16:50.189Z,77.30
2022-11-28T01:19:18.418Z,79.70
2022-11-28T01:21:47.183Z,85.20
2022-11-28T01:24:15.469Z,86.30
2022-11-28T01:26:43.741Z,78.80
2022-11-28T01:29:12.319Z,85.20
2022-11-28T01:31:41.172Z,87.90
2022-11-28T01:34:09.446Z,99.70
2022-11-28T01:36:37.301Z,95.70
2022-11-28T01:39:06.407Z,91.70
2022-11-28T01:41:34.725Z,85.50
2022-11-28T01:44:25.945Z,86.20
2022-11-28T01:46:53.854Z,84.90
2022-11-28T01:49:31.861Z,81.50
2022-11-28T01:52:07.212Z,88.20
2022-11-28T01:54:36.411Z,93.20
2022-11-28T01:57:12.565Z,95.10
2022-11-28T01:59:45.637Z,102.70
2022-11-28T02:02:20.293Z,97.60
2022-11-28T02:04:50.597Z,81.60
2022-11-28T02:07:20.798Z,88.20
2022-11-28T02:09:48.881Z,98.10
2022-11-28T02:12:23.011Z,92.00
2022-11-28T02:14:53.937Z,81.80
2022-11-28T02:17:50.056Z,69.60
2022-11-28T02:20:33.065Z,75.30
2022-11-28T02:23:28.472Z,84.40
2022-11-28T02:26:31.648Z,79.80
2022-11-28T02:29:36.380Z,73.30
2022-11-28T02:32:23.404Z,83.40
2022-11-28T02:35:06.521Z,74.90
2022-11-28T02:38:00.711Z,82.90
2022-11-28T02:40:39.226Z,71.30
2022-11-28T02:43:11.800Z,63.60
2022-11-28T02:45:50.315Z,68.30
2022-11-28T02:48:37.932Z,77.70
2022-11-28T02:51:21.137Z,73.50
2022-11-28T02:53:51.093Z,78.40
2022-11-28T02:56:19.659Z,86.60
2022-11-28T02:58:47.577Z,77.10
2022-11-28T03:01:21.184Z,73.30
2022-11-28T03:04:12.383Z,81.80
2022-11-28T03:07:04.118Z,70.00
2022-11-28T03:10:01.403Z,121.60
2022-11-28T03:12:42.048Z,174.90
2022-11-28T03:18:07.646Z,178.10
2022-11-28T03:20:46.393Z,159.60
2022-11-28T03:23:37.430Z,124.80
2022-11-28T03:26:25.079Z,127.10
2022-11-28T03:29:26.044Z,108.80
2022-11-28T03:31:59.770Z,100.40
2022-11-28T03:34:37.645Z,95.20
2022-11-28T03:37:13.978Z,95.00
2022-11-28T03:39:46.919Z,92.20
2022-11-28T03:42:21.137Z,95.60
2022-11-28T03:44:59.223Z,113.30
2022-11-28T03:47:31.544Z,105.00
2022-11-28T03:50:06.944Z,107.50
2022-11-28T03:52:46.540Z,108.00
2022-11-28T03:55:22.453Z,112.70
2022-11-28T03:58:10.508Z,104.70
2022-11-28T04:00:58.611Z,112.40
2022-11-28T04:03:52.349Z,109.70
2022-11-28T04:06:26.216Z,107.20
2022-11-28T04:09:23.272Z,110.00
2022-11-28T04:11:59.328Z,104.60
2022-11-28T04:14:34.901Z,103.50
2022-11-28T04:17:16.090Z,102.40
2022-11-28T04:19:50.826Z,98.20
2022-11-28T04:22:25.216Z,88.30
2022-11-28T04:24:57.686Z,89.00
2022-11-28T04:27:35.139Z,101.10
2022-11-28T04:30:05.712Z,94.30
2022-11-28T04:35:17.050Z,74.00
2022-11-28T04:37:48.862Z,83.40
2022-11-28T04:40:20.328Z,79.40
2022-11-28T04:42:53.795Z,74.60
2022-11-28T04:45:28.368Z,88.00
2022-11-28T04:47:56.990Z,73.90
2022-11-28T04:50:31.918Z,87.20
2022-11-28T04:53:09.639Z,86.80
2022-11-28T04:55:49.333Z,86.30
2022-11-28T04:58:36.256Z,82.70
2022-11-28T05:01:10.101Z,83.50
2022-11-28T05:03:42.830Z,92.00
2022-11-28T05:06:11.472Z,93.60
2022-11-28T05:08:39.814Z,94.20
2022-11-28T05:11:07.915Z,86.30
2022-11-28T05:13:35.818Z,84.60
2022-11-28T05:16:06.079Z,91.10
2022-11-28T05:18:34.003Z,91.60
2022-11-28T05:21:01.802Z,93.50
2022-11-28T05:23:29.765Z,89.60
2022-11-28T05:25:57.985Z,78.20
2022-11-28T05:28:26.220Z,77.10
2022-11-28T05:30:59.367Z,88.00
2022-11-28T05:33:29.467Z,86.90
2022-11-28T05:36:05.487Z,80.30
2022-11-28T05:38:37.594Z,81.20
2022-11-28T05:41:06.217Z,73.00
2022-11-28T05:43:34.272Z,71.00
2022-11-28T05:46:05.777Z,78.10
2022-11-28T05:48:34.094Z,80.30
2022-11-28T05:51:05.468Z,90.70
2022-11-28T05:53:34.039Z,73.50
2022-11-28T05:56:10.029Z,81.90
2022-11-28T05:58:38.681Z,76.30
2022-11-28T06:01:15.696Z,75.90
2022-11-28T06:03:44.685Z,79.00
2022-11-28T06:06:15.615Z,76.30
2022-11-28T06:08:44.816Z,78.70
2022-11-28T06:11:15.000Z,74.90
2022-11-28T06:13:44.769Z,76.40
2022-11-28T06:16:17.648Z,86.90
2022-11-28T06:18:46.195Z,66.30
2022-11-28T06:21:15.544Z,73.50
2022-11-28T06:23:43.821Z,63.90
2022-11-28T06:26:15.502Z,62.80
2022-11-28T06:28:44.311Z,73.00
2022-11-28T06:31:24.521Z,82.80
2022-11-28T06:36:21.406Z,82.50
2022-11-28T06:38:49.504Z,75.40
2022-11-28T06:41:20.070Z,73.80
2022-11-28T06:43:48.326Z,62.00
2022-11-28T06:46:19.444Z,59.70
2022-11-28T06:48:49.462Z,61.10
2022-11-28T06:51:20.153Z,63.70
2022-11-28T06:53:48.953Z,60.20
2022-11-28T06:56:19.711Z,61.70
2022-11-28T06:58:53.412Z,61.50
2022-11-28T07:01:23.416Z,48.40
2022-11-28T07:03:54.372Z,52.70
2022-11-28T07:06:25.142Z,64.00
2022-11-28T07:08:54.038Z,71.70
2022-11-28T07:11:31.757Z,60.90
2022-11-28T07:14:02.873Z,50.90
2022-11-28T07:16:33.445Z,56.40
2022-11-28T07:19:01.548Z,59.30
2022-11-28T07:21:29.959Z,56.00
2022-11-28T07:23:59.261Z,61.00
2022-11-28T07:26:27.675Z,55.70
2022-11-28T07:28:58.369Z,62.80
2022-11-28T07:34:03.440Z,61.70
2022-11-28T07:36:32.419Z,55.30
2022-11-28T07:39:03.624Z,60.10
2022-11-28T07:41:32.173Z,59.90
2022-11-28T07:44:02.627Z,67.40
2022-11-28T07:46:32.577Z,65.90
2022-11-28T07:49:01.551Z,55.20
2022-11-28T07:51:32.095Z,53.00
2022-11-28T07:54:01.735Z,59.50
2022-11-28T07:56:57.163Z,48.20
2022-11-28T07:59:21.441Z,56.10
2022-11-28T08:01:50.140Z,44.50
2022-11-28T08:04:18.467Z,56.10
2022-11-28T08:06:46.360Z,50.30
2022-11-28T08:09:14.616Z,53.10
2022-11-28T08:11:43.294Z,53.60
2022-11-28T08:14:11.649Z,48.70
2022-11-28T08:16:45.363Z,58.00
2022-11-28T08:19:13.848Z,48.50
2022-11-28T08:21:42.378Z,49.50
2022-11-28T08:24:11.840Z,53.80
2022-11-28T08:26:40.185Z,48.30
2022-11-28T08:29:08.219Z,50.80
2022-11-28T08:31:38.380Z,64.20
2022-11-28T08:34:08.847Z,50.00
2022-11-28T08:42:00.135Z,65.40
2022-11-28T08:44:30.406Z,51.70
2022-11-28T08:46:58.815Z,54.30
2022-11-28T08:49:27.063Z,41.30
2022-11-28T08:51:54.927Z,41.30
2022-11-28T08:54:22.973Z,41.50
2022-11-28T08:56:51.106Z,45.70
2022-11-28T08:59:19.289Z,40.80
2022-11-28T09:01:47.442Z,46.60
2022-11-28T09:04:15.705Z,86.10
2022-11-28T09:06:43.548Z,96.30
2022-11-28T09:09:11.848Z,42.60
2022-11-28T09:11:40.311Z,38.10
2022-11-28T09:14:08.939Z,34.30
2022-11-28T09:16:39.445Z,41.10
2022-11-28T09:19:09.491Z,41.90
2022-11-28T09:21:38.131Z,58.80
2022-11-28T09:24:07.046Z,34.60
2022-11-28T09:26:35.175Z,39.70
2022-11-28T09:29:03.422Z,36.80
2022-11-28T09:31:31.462Z,37.00
2022-11-28T09:33:59.732Z,32.90
2022-11-28T09:36:28.617Z,34.20
2022-11-28T09:38:56.639Z,42.70
2022-11-28T09:41:40.058Z,45.40
2022-11-28T09:44:26.747Z,33.20
2022-11-28T09:47:00.316Z,34.10
2022-11-28T09:49:42.213Z,39.60
2022-11-28T09:52:36.278Z,35.90
2022-11-28T09:55:16.220Z,30.10
2022-11-28T09:57:49.272Z,31.80
2022-11-28T10:00:32.964Z,27.00
2022-11-28T10:03:19.308Z,30.20
2022-11-28T10:06:07.643Z,26.90
2022-11-28T10:08:43.186Z,27.30
2022-11-28T10:11:44.193Z,30.80
2022-11-28T10:14:57.111Z,30.50
2022-11-28T10:17:43.256Z,26.40
2022-11-28T10:20:18.807Z,26.50
2022-11-28T10:22:54.814Z,25.90
2022-11-28T10:25:29.467Z,28.60
2022-11-28T10:27:58.022Z,23.00
2022-11-28T10:30:37.256Z,26.30
2022-11-28T10:33:09.847Z,27.40
2022-11-28T10:35:58.412Z,21.60
2022-11-28T10:38:29.077Z,27.90
2022-11-28T10:44:06.864Z,27.50
2022-11-28T10:47:04.614Z,115.20
2022-11-28T10:49:50.754Z,29.00
2022-11-28T10:52:31.548Z,25.00
2022-11-28T10:58:07.581Z,22.60
2022-11-28T11:00:36.877Z,32.90
2022-11-28T11:03:06.119Z,23.80
2022-11-28T11:05:36.702Z,21.80
2022-11-28T11:08:43.341Z,19.70
2022-11-28T11:11:31.919Z,25.40
2022-11-28T11:14:07.469Z,32.50
2022-11-28T11:16:56.938Z,32.20
2022-11-28T11:19:31.102Z,31.10
2022-11-28T11:22:19.001Z,29.60
2022-11-28T11:25:16.948Z,20.90
2022-11-28T11:27:53.695Z,20.50
2022-11-28T11:30:34.898Z,30.00
2022-11-28T11:33:06.312Z,23.70
2022-11-28T11:35:37.338Z,21.90
2022-11-28T11:38:14.211Z,28.50
2022-11-28T11:40:42.717Z,22.10
2022-11-28T11:43:32.401Z,23.20
2022-11-28T11:46:11.447Z,22.40
2022-11-28T11:48:43.613Z,29.90
2022-11-28T11:51:22.760Z,22.70
2022-11-28T11:54:20.356Z,24.40
2022-11-28T11:56:56.738Z,26.00
2022-11-28T11:59:42.627Z,28.90
2022-11-28T12:02:30.406Z,24.10
2022-11-28T12:05:09.945Z,28.10
2022-11-28T12:08:15.719Z,24.90
2022-11-28T12:10:50.923Z,30.60
2022-11-28T12:13:24.264Z,27.50
2022-11-28T12:15:55.192Z,27.80
2022-11-28T12:18:46.238Z,29.70
2022-11-28T12:21:25.227Z,23.10
2022-11-28T12:24:07.495Z,30.80
2022-11-28T12:26:50.683Z,25.60
2022-11-28T12:29:40.989Z,22.60
2022-11-28T12:32:18.060Z,32.20
2022-11-28T12:35:12.715Z,26.90
2022-11-28T12:38:16.841Z,28.70
2022-11-28T12:41:09.030Z,25.10
2022-11-28T12:44:14.251Z,26.40
2022-11-28T12:47:08.051Z,27.90
2022-11-28T12:49:45.731Z,26.50
2022-11-28T12:52:32.882Z,32.50
2022-11-28T12:55:00.946Z,35.80
2022-11-28T12:57:29.231Z,34.70
2022-11-28T13:00:13.593Z,30.70
2022-11-28T13:03:06.148Z,38.30
2022-11-28T13:05:52.927Z,33.70
2022-11-28T13:08:48.747Z,30.10
2022-11-28T13:11:44.595Z,34.00
2022-11-28T13:14:34.377Z,36.00
2022-11-28T13:17:35.977Z,43.60
2022-11-28T13:20:12.654Z,33.80
2022-11-28T13:22:47.096Z,29.10
2022-11-28T13:25:35.610Z,28.60
2022-11-28T13:28:13.335Z,34.30
2022-11-28T13:30:53.952Z,33.90
2022-11-28T13:33:28.296Z,36.50
2022-11-28T13:35:59.547Z,34.10
2022-11-28T13:39:12.929Z,47.80
2022-11-28T13:42:36.082Z,32.00
2022-11-28T13:44:57.820Z,37.60
2022-11-28T13:47:29.524Z,35.90
2022-11-28T13:50:28.359Z,36.50
2022-11-28T13:53:02.094Z,31.80
2022-11-28T13:55:36.172Z,41.40
2022-11-28T13:58:33.631Z,40.90
2022-11-28T14:01:12.028Z,42.50
2022-11-28T14:03:52.126Z,39.90
2022-11-28T14:06:22.896Z,38.40
2022-11-28T14:11:50.153Z,43.00
2022-11-28T14:14:52.340Z,38.90
2022-11-28T14:17:39.678Z,64.00
2022-11-28T14:20:24.320Z,39.10
2022-11-28T14:23:46.748Z,43.90
2022-11-28T14:26:30.777Z,40.80
2022-11-28T14:28:59.510Z,42.00
2022-11-28T14:31:32.161Z,38.60
2022-11-28T14:34:37.898Z,82.10
2022-11-28T14:37:27.281Z,36.00
2022-11-28T14:39:57.291Z,33.70
2022-11-28T14:42:58.345Z,39.80
2022-11-28T14:45:41.438Z,139.40
2022-11-28T14:48:22.222Z,53.20
2022-11-28T14:50:57.558Z,59.40
2022-11-28T14:53:45.640Z,41.90
2022-11-28T14:56:13.923Z,50.20
2022-11-28T14:58:56.353Z,43.30
2022-11-28T15:01:45.252Z,42.10
2022-11-28T15:04:47.302Z,48.00
2022-11-28T15:07:37.519Z,49.90
2022-11-28T15:10:15.955Z,52.40
2022-11-28T15:12:59.785Z,46.50
2022-11-28T15:15:30.047Z,63.50
2022-11-28T15:18:00.878Z,51.20
2022-11-28T15:20:35.760Z,56.20
2022-11-28T15:23:04.568Z,48.70
2022-11-28T15:25:37.520Z,58.10
2022-11-28T15:28:16.373Z,54.40
2022-11-28T15:30:46.991Z,58.80
2022-11-28T15:33:14.992Z,60.30
2022-11-28T15:36:03.082Z,70.00
2022-11-28T15:38:32.451Z,59.50
2022-11-28T15:41:00.719Z,61.10
2022-11-28T15:43:31.670Z,60.80
2022-11-28T15:46:01.420Z,60.60
2022-11-28T15:48:39.383Z,66.30
2022-11-28T15:51:08.856Z,63.60
2022-11-28T15:53:42.597Z,66.90
2022-11-28T15:56:12.236Z,56.80
2022-11-28T15:58:42.963Z,60.00
2022-11-28T16:01:16.279Z,66.80
2022-11-28T16:03:56.898Z,69.70
2022-11-28T16:06:28.722Z,55.10
2022-11-28T16:09:00.277Z,55.40
2022-11-28T16:11:30.944Z,57.00
2022-11-28T16:14:06.452Z,67.80
2022-11-28T16:16:37.497Z,58.30
2022-11-28T16:19:26.963Z,61.00
2022-11-28T16:22:19.594Z,56.90
2022-11-28T16:24:56.361Z,64.90
2022-11-28T16:27:34.963Z,62.60
2022-11-28T16:30:31.405Z,52.30
2022-11-28T16:32:59.682Z,52.80
2022-11-28T16:35:42.383Z,55.80
2022-11-28T16:38:23.919Z,60.20
2022-11-28T16:40:59.062Z,61.70
2022-11-28T16:43:35.824Z,61.10
2022-11-28T16:46:07.264Z,77.70
2022-11-28T16:48:48.372Z,64.50
2022-11-28T16:51:37.387Z,52.30
2022-11-28T16:54:30.141Z,54.50
2022-11-28T16:57:12.120Z,58.90
2022-11-28T16:59:41.977Z,49.80
2022-11-28T17:02:30.701Z,56.90
2022-11-28T17:04:58.989Z,68.70
2022-11-28T17:07:27.477Z,65.40
2022-11-28T17:09:56.125Z,64.70
2022-11-28T17:12:42.084Z,71.50
2022-11-28T17:15:20.470Z,57.30
2022-11-28T17:17:48.611Z,60.50
2022-11-28T17:20:18.160Z,53.50
2022-11-28T17:22:48.209Z,54.30
2022-11-28T17:25:19.050Z,57.50
2022-11-28T17:27:50.071Z,51.60
2022-11-28T17:30:20.128Z,54.60
2022-11-28T17:32:48.592Z,61.50
2022-11-28T17:35:24.304Z,53.00
2022-11-28T17:37:52.454Z,46.40
2022-11-28T17:40:36.888Z,49.20
2022-11-28T17:43:05.305Z,51.30
2022-11-28T17:45:35.673Z,42.80
2022-11-28T17:48:03.711Z,41.30
2022-11-28T17:50:31.752Z,45.80
2022-11-28T17:52:59.783Z,44.70
2022-11-28T17:55:29.343Z,46.20
2022-11-28T17:57:57.570Z,41.80
2022-11-28T18:00:26.079Z,47.30
2022-11-28T18:02:55.483Z,45.20
2022-11-28T18:05:24.023Z,48.60
2022-11-28T18:07:51.837Z,45.90
2022-11-28T18:10:20.076Z,55.80
2022-11-28T18:12:49.341Z,56.70
2022-11-28T18:15:17.320Z,58.20
2022-11-28T18:17:46.185Z,54.40
2022-11-28T18:20:14.267Z,57.30
2022-11-28T18:22:42.695Z,62.20
2022-11-28T18:25:11.271Z,57.00
2022-11-28T18:27:39.529Z,58.30
2022-11-28T18:30:08.645Z,62.30
2022-11-28T18:32:37.137Z,57.70
2022-11-28T18:35:06.168Z,63.90
2022-11-28T18:37:34.910Z,60.90
2022-11-28T18:40:08.930Z,60.30
2022-11-28T18:42:37.431Z,56.10
2022-11-28T18:45:06.162Z,60.20
2022-11-28T18:47:35.604Z,56.20
2022-11-28T18:50:04.065Z,60.30
2022-11-28T18:52:32.015Z,46.00
2022-11-28T18:55:00.200Z,63.10
2022-11-28T18:57:32.889Z,66.80
2022-11-28T19:00:01.456Z,58.60
2022-11-28T19:02:30.355Z,57.00
2022-11-28T19:04:58.622Z,54.20
2022-11-28T19:07:27.803Z,67.10
2022-11-28T19:09:55.877Z,54.80
2022-11-28T19:12:23.904Z,57.70
2022-11-28T19:14:54.141Z,56.10
2022-11-28T19:17:25.336Z,52.90
2022-11-28T19:19:53.298Z,55.70
2022-11-28T19:22:22.573Z,53.50
2022-11-28T19:24:50.701Z,55.50
2022-11-28T19:27:18.947Z,59.80
2022-11-28T19:29:47.099Z,61.10
2022-11-28T19:32:17.044Z,53.40
2022-11-28T19:34:45.256Z,55.50
2022-11-28T19:37:16.113Z,49.50
2022-11-28T19:39:44.897Z,56.10
2022-11-28T19:42:13.415Z,57.20
2022-11-28T19:44:41.467Z,50.70
2022-11-28T19:47:09.772Z,58.60
2022-11-28T19:49:38.828Z,55.60
2022-11-28T19:52:07.611Z,51.10
2022-11-28T19:54:35.610Z,55.40
2022-11-28T19:57:04.289Z,54.70
2022-11-28T19:59:32.138Z,53.40
2022-11-28T20:02:01.011Z,59.30
2022-11-28T20:04:29.271Z,54.40
2022-11-28T20:06:57.724Z,56.40
2022-11-28T20:09:26.831Z,52.90
2022-11-28T20:11:55.364Z,57.20
2022-11-28T20:14:24.758Z,53.90
2022-11-28T20:16:53.975Z,51.70
2022-11-28T20:19:22.851Z,60.60
2022-11-28T20:21:50.926Z,53.20
2022-11-28T20:24:18.887Z,53.70
2022-11-28T20:26:47.716Z,52.10
2022-11-28T20:29:18.112Z,52.90
2022-11-28T20:31:47.923Z,50.90
2022-11-28T20:34:19.725Z,48.90
2022-11-28T20:36:52.317Z,48.40
2022-11-28T20:39:20.843Z,50.70
2022-11-28T20:41:48.898Z,51.20
2022-11-28T20:44:18.797Z,59.00
2022-11-28T20:46:47.172Z,55.90
2022-11-28T20:49:15.673Z,58.40
2022-11-28T20:51:43.873Z,66.30
2022-11-28T20:54:13.561Z,59.50
2022-11-28T20:57:12.842Z,62.40
2022-11-28T20:59:31.242Z,59.00
2022-11-28T21:01:59.381Z,51.90
2022-11-28T21:04:27.741Z,58.50
2022-11-28T21:06:55.931Z,54.40
2022-11-28T21:09:24.380Z,54.20
2022-11-28T21:11:59.836Z,51.70
2022-11-28T21:14:28.929Z,55.50
2022-11-28T21:16:58.206Z,67.50
2022-11-28T21:19:26.958Z,59.80
2022-11-28T21:21:55.189Z,65.90
2022-11-28T21:24:23.732Z,72.10
2022-11-28T21:26:54.540Z,69.00
2022-11-28T21:29:23.649Z,68.40
2022-11-28T21:31:53.255Z,73.20
2022-11-28T21:34:22.507Z,64.10
2022-11-28T21:36:50.893Z,62.50
2022-11-28T21:39:20.956Z,67.20
2022-11-28T21:41:51.202Z,62.90
2022-11-28T21:44:19.772Z,63.60
2022-11-28T21:46:47.628Z,56.20
2022-11-28T21:49:15.518Z,55.60
2022-11-28T21:51:43.733Z,52.60
2022-11-28T21:54:12.606Z,48.80
2022-11-28T21:56:41.039Z,55.10
2022-11-28T21:59:09.462Z,66.60
2022-11-28T22:01:37.384Z,55.10
2022-11-28T22:04:06.053Z,60.30
2022-11-28T22:06:34.056Z,53.90
2022-11-28T22:09:09.169Z,55.10
2022-11-28T22:11:39.317Z,50.30
2022-11-28T22:14:07.183Z,49.70
2022-11-28T22:16:35.982Z,52.60
2022-11-28T22:19:04.323Z,49.20
2022-11-28T22:24:21.580Z,48.70
2022-11-28T22:26:49.923Z,52.90
2022-11-28T22:29:18.956Z,66.40
2022-11-28T22:31:47.111Z,61.50
2022-11-28T22:34:15.519Z,62.70
2022-11-28T22:36:43.943Z,63.20
2022-11-28T22:39:12.294Z,54.30
2022-11-28T22:41:40.512Z,57.70
2022-11-28T22:44:10.296Z,51.30
2022-11-28T22:46:38.867Z,55.90
2022-11-28T22:49:08.266Z,58.50
2022-11-28T22:51:36.115Z,55.40
2022-11-28T22:54:05.019Z,58.40
2022-11-28T22:56:34.150Z,61.00
2022-11-28T22:59:04.920Z,56.90
2022-11-28T23:01:34.717Z,58.90
2022-11-28T23:04:02.647Z,58.00
2022-11-28T23:06:33.825Z,60.50
2022-11-28T23:09:06.792Z,52.30
2022-11-28T23:11:36.865Z,57.00
2022-11-28T23:14:06.955Z,62.30
2022-11-28T23:16:38.211Z,66.10
2022-11-28T23:19:11.138Z,56.90
2022-11-28T23:21:40.834Z,71.70
2022-11-28T23:24:17.435Z,63.10
2022-11-28T23:26:47.906Z,60.50
2022-11-28T23:29:16.226Z,52.90
2022-11-28T23:31:46.875Z,57.70
2022-11-28T23:34:15.637Z,61.30
2022-11-28T23:36:46.847Z,64.80
2022-11-28T23:39:20.687Z,57.20
2022-11-28T23:41:50.001Z,60.10
2022-11-28T23:44:19.631Z,57.80
2022-11-28T23:46:48.353Z,59.30
2022-11-28T23:49:16.555Z,64.00
2022-11-28T23:51:44.462Z,56.50
2022-11-28T23:54:12.743Z,55.80
2022-11-28T23:56:41.824Z,63.00
2022-11-28T23:59:11.014Z,57.00
